sensor_id;sensor_type;location;lat;lon;timestamp;P1;durP1;ratioP1;P2;durP2;ratioP2
21430;SDS011;10876;49.038;10.608;2023-07-13T00:01:30;4.38;;;2.67;;
21430;SDS011;10876;49.038;10.608;2023-07-13T00:03:58;4.30;;;2.78;;
21430;SDS011;10876;49.038;10.608;2023-07-13T00:06:25;3.67;;;2.58;;
21430;SDS011;10876;49.038;10.608;2023-07-13T00:08:55;3.72;;;2.40;;
21430;SDS011;10876;49.038;10.608;2023-07-13T00:11:22;5.15;;;2.85;;
21430;SDS011;10876;49.038;10.608;2023-07-13T00:13:48;3.97;;;2.38;;
21430;SDS011;10876;49.038;10.608;2023-07-13T00:16:15;3.65;;;2.45;;
21430;SDS011;10876;49.038;10.608;2023-07-13T00:18:43;3.67;;;2.80;;
21430;SDS011;10876;49.038;10.608;2023-07-13T00:21:12;5.03;;;2.60;;
21430;SDS011;10876;49.038;10.608;2023-07-13T00:23:42;4.82;;;2.40;;
21430;SDS011;10876;49.038;10.608;2023-07-13T00:26:09;3.63;;;1.80;;
21430;SDS011;10876;49.038;10.608;2023-07-13T00:28:37;3.97;;;2.10;;
21430;SDS011;10876;49.038;10.608;2023-07-13T00:31:05;3.03;;;2.00;;
21430;SDS011;10876;49.038;10.608;2023-07-13T00:33:32;3.85;;;1.88;;
21430;SDS011;10876;49.038;10.608;2023-07-13T00:35:59;2.50;;;1.90;;
21430;SDS011;10876;49.038;10.608;2023-07-13T00:38:27;3.53;;;2.05;;
21430;SDS011;10876;49.038;10.608;2023-07-13T00:40:54;4.90;;;1.73;;
21430;SDS011;10876;49.038;10.608;2023-07-13T00:43:22;3.15;;;2.00;;
21430;SDS011;10876;49.038;10.608;2023-07-13T00:48:49;4.15;;;2.08;;
21430;SDS011;10876;49.038;10.608;2023-07-13T00:51:19;3.33;;;2.15;;
21430;SDS011;10876;49.038;10.608;2023-07-13T00:53:51;4.15;;;2.08;;
21430;SDS011;10876;49.038;10.608;2023-07-13T00:56:21;2.30;;;1.80;;
21430;SDS011;10876;49.038;10.608;2023-07-13T00:58:48;4.25;;;2.00;;
21430;SDS011;10876;49.038;10.608;2023-07-13T01:01:16;3.00;;;1.90;;
21430;SDS011;10876;49.038;10.608;2023-07-13T01:03:43;3.92;;;1.88;;
21430;SDS011;10876;49.038;10.608;2023-07-13T01:06:10;3.17;;;2.10;;
21430;SDS011;10876;49.038;10.608;2023-07-13T01:08:37;3.88;;;1.67;;
21430;SDS011;10876;49.038;10.608;2023-07-13T01:11:06;3.30;;;1.50;;
21430;SDS011;10876;49.038;10.608;2023-07-13T01:13:34;3.00;;;2.05;;
21430;SDS011;10876;49.038;10.608;2023-07-13T01:16:02;2.75;;;1.73;;
21430;SDS011;10876;49.038;10.608;2023-07-13T01:18:33;4.93;;;2.10;;
21430;SDS011;10876;49.038;10.608;2023-07-13T01:21:02;2.10;;;1.83;;
21430;SDS011;10876;49.038;10.608;2023-07-13T01:23:30;3.13;;;1.90;;
21430;SDS011;10876;49.038;10.608;2023-07-13T01:25:58;3.45;;;1.70;;
21430;SDS011;10876;49.038;10.608;2023-07-13T01:28:26;3.90;;;1.98;;
21430;SDS011;10876;49.038;10.608;2023-07-13T01:30:54;2.58;;;1.88;;
21430;SDS011;10876;49.038;10.608;2023-07-13T01:33:22;2.47;;;1.65;;
21430;SDS011;10876;49.038;10.608;2023-07-13T01:35:50;2.55;;;1.98;;
21430;SDS011;10876;49.038;10.608;2023-07-13T01:38:19;3.70;;;2.10;;
21430;SDS011;10876;49.038;10.608;2023-07-13T01:40:47;5.07;;;2.00;;
21430;SDS011;10876;49.038;10.608;2023-07-13T01:43:14;4.57;;;1.75;;
21430;SDS011;10876;49.038;10.608;2023-07-13T01:45:41;3.38;;;1.55;;
21430;SDS011;10876;49.038;10.608;2023-07-13T01:48:08;2.60;;;1.63;;
21430;SDS011;10876;49.038;10.608;2023-07-13T01:50:35;3.85;;;1.80;;
21430;SDS011;10876;49.038;10.608;2023-07-13T01:53:02;1.92;;;1.65;;
21430;SDS011;10876;49.038;10.608;2023-07-13T01:55:30;2.10;;;1.60;;
21430;SDS011;10876;49.038;10.608;2023-07-13T01:57:58;3.55;;;1.77;;
21430;SDS011;10876;49.038;10.608;2023-07-13T02:00:24;2.15;;;1.67;;
21430;SDS011;10876;49.038;10.608;2023-07-13T02:02:51;3.33;;;1.58;;
21430;SDS011;10876;49.038;10.608;2023-07-13T02:05:18;3.72;;;1.90;;
21430;SDS011;10876;49.038;10.608;2023-07-13T02:07:45;3.15;;;1.70;;
21430;SDS011;10876;49.038;10.608;2023-07-13T02:10:12;4.88;;;1.95;;
21430;SDS011;10876;49.038;10.608;2023-07-13T02:12:40;3.45;;;2.25;;
21430;SDS011;10876;49.038;10.608;2023-07-13T02:15:09;3.25;;;1.73;;
21430;SDS011;10876;49.038;10.608;2023-07-13T02:17:36;5.95;;;1.67;;
21430;SDS011;10876;49.038;10.608;2023-07-13T02:20:03;3.35;;;1.70;;
21430;SDS011;10876;49.038;10.608;2023-07-13T02:22:31;1.80;;;1.42;;
21430;SDS011;10876;49.038;10.608;2023-07-13T02:24:58;3.75;;;2.13;;
21430;SDS011;10876;49.038;10.608;2023-07-13T02:27:25;3.00;;;1.42;;
21430;SDS011;10876;49.038;10.608;2023-07-13T02:29:53;4.43;;;1.58;;
21430;SDS011;10876;49.038;10.608;2023-07-13T02:32:20;1.73;;;1.45;;
21430;SDS011;10876;49.038;10.608;2023-07-13T02:34:47;4.88;;;1.95;;
21430;SDS011;10876;49.038;10.608;2023-07-13T02:37:13;3.17;;;1.85;;
21430;SDS011;10876;49.038;10.608;2023-07-13T02:39:40;2.00;;;1.40;;
21430;SDS011;10876;49.038;10.608;2023-07-13T02:42:07;4.07;;;1.50;;
21430;SDS011;10876;49.038;10.608;2023-07-13T02:44:34;5.53;;;1.75;;
21430;SDS011;10876;49.038;10.608;2023-07-13T02:47:02;3.08;;;1.65;;
21430;SDS011;10876;49.038;10.608;2023-07-13T02:49:29;4.60;;;1.88;;
21430;SDS011;10876;49.038;10.608;2023-07-13T02:51:56;3.33;;;1.70;;
21430;SDS011;10876;49.038;10.608;2023-07-13T02:54:22;2.50;;;1.60;;
21430;SDS011;10876;49.038;10.608;2023-07-13T02:56:49;2.13;;;1.50;;
21430;SDS011;10876;49.038;10.608;2023-07-13T02:59:16;3.35;;;1.50;;
21430;SDS011;10876;49.038;10.608;2023-07-13T03:01:42;4.90;;;1.85;;
21430;SDS011;10876;49.038;10.608;2023-07-13T03:04:10;4.22;;;1.60;;
21430;SDS011;10876;49.038;10.608;2023-07-13T03:06:37;5.25;;;1.60;;
21430;SDS011;10876;49.038;10.608;2023-07-13T03:09:04;4.03;;;1.63;;
21430;SDS011;10876;49.038;10.608;2023-07-13T03:11:31;2.63;;;1.60;;
21430;SDS011;10876;49.038;10.608;2023-07-13T03:13:58;2.75;;;1.63;;
21430;SDS011;10876;49.038;10.608;2023-07-13T03:16:25;4.35;;;1.67;;
21430;SDS011;10876;49.038;10.608;2023-07-13T03:18:51;2.08;;;1.42;;
21430;SDS011;10876;49.038;10.608;2023-07-13T03:21:19;2.78;;;1.65;;
21430;SDS011;10876;49.038;10.608;2023-07-13T03:23:46;4.70;;;1.65;;
21430;SDS011;10876;49.038;10.608;2023-07-13T03:26:15;3.58;;;1.65;;
21430;SDS011;10876;49.038;10.608;2023-07-13T03:28:43;5.00;;;1.98;;
21430;SDS011;10876;49.038;10.608;2023-07-13T03:31:11;5.07;;;1.50;;
21430;SDS011;10876;49.038;10.608;2023-07-13T03:33:40;2.05;;;1.50;;
21430;SDS011;10876;49.038;10.608;2023-07-13T03:36:10;4.22;;;1.52;;
21430;SDS011;10876;49.038;10.608;2023-07-13T03:38:42;2.75;;;1.50;;
21430;SDS011;10876;49.038;10.608;2023-07-13T03:41:09;2.53;;;1.63;;
21430;SDS011;10876;49.038;10.608;2023-07-13T03:43:36;3.72;;;1.92;;
21430;SDS011;10876;49.038;10.608;2023-07-13T03:46:02;2.15;;;1.42;;
21430;SDS011;10876;49.038;10.608;2023-07-13T03:48:29;4.07;;;1.67;;
21430;SDS011;10876;49.038;10.608;2023-07-13T03:50:56;3.90;;;1.90;;
21430;SDS011;10876;49.038;10.608;2023-07-13T03:53:22;2.30;;;1.60;;
21430;SDS011;10876;49.038;10.608;2023-07-13T03:55:50;3.58;;;2.10;;
21430;SDS011;10876;49.038;10.608;2023-07-13T03:58:24;2.63;;;1.50;;
21430;SDS011;10876;49.038;10.608;2023-07-13T04:00:56;2.08;;;1.60;;
21430;SDS011;10876;49.038;10.608;2023-07-13T04:03:25;4.35;;;2.10;;
21430;SDS011;10876;49.038;10.608;2023-07-13T04:05:54;3.35;;;1.60;;
21430;SDS011;10876;49.038;10.608;2023-07-13T04:08:24;2.20;;;1.90;;
21430;SDS011;10876;49.038;10.608;2023-07-13T04:10:53;4.10;;;1.80;;
21430;SDS011;10876;49.038;10.608;2023-07-13T04:13:20;2.70;;;1.60;;
21430;SDS011;10876;49.038;10.608;2023-07-13T04:15:47;2.63;;;1.75;;
21430;SDS011;10876;49.038;10.608;2023-07-13T04:18:13;2.45;;;1.67;;
21430;SDS011;10876;49.038;10.608;2023-07-13T04:20:40;3.83;;;1.63;;
21430;SDS011;10876;49.038;10.608;2023-07-13T04:23:07;2.22;;;1.80;;
21430;SDS011;10876;49.038;10.608;2023-07-13T04:25:34;2.08;;;1.40;;
21430;SDS011;10876;49.038;10.608;2023-07-13T04:28:02;1.98;;;1.40;;
21430;SDS011;10876;49.038;10.608;2023-07-13T04:30:29;4.25;;;1.90;;
21430;SDS011;10876;49.038;10.608;2023-07-13T04:32:56;2.38;;;1.75;;
21430;SDS011;10876;49.038;10.608;2023-07-13T04:35:23;5.43;;;2.17;;
21430;SDS011;10876;49.038;10.608;2023-07-13T04:37:49;3.20;;;1.75;;
21430;SDS011;10876;49.038;10.608;2023-07-13T04:40:17;3.10;;;1.70;;
21430;SDS011;10876;49.038;10.608;2023-07-13T04:42:44;3.70;;;1.88;;
21430;SDS011;10876;49.038;10.608;2023-07-13T04:45:12;4.10;;;1.80;;
21430;SDS011;10876;49.038;10.608;2023-07-13T04:47:40;2.72;;;1.70;;
21430;SDS011;10876;49.038;10.608;2023-07-13T04:50:07;4.10;;;1.85;;
21430;SDS011;10876;49.038;10.608;2023-07-13T04:52:36;3.00;;;1.70;;
21430;SDS011;10876;49.038;10.608;2023-07-13T04:55:02;2.30;;;1.40;;
21430;SDS011;10876;49.038;10.608;2023-07-13T04:57:30;2.75;;;1.70;;
21430;SDS011;10876;49.038;10.608;2023-07-13T04:59:58;2.75;;;1.55;;
21430;SDS011;10876;49.038;10.608;2023-07-13T05:02:28;2.35;;;1.40;;
21430;SDS011;10876;49.038;10.608;2023-07-13T05:04:56;2.10;;;1.60;;
21430;SDS011;10876;49.038;10.608;2023-07-13T05:07:23;2.88;;;1.77;;
21430;SDS011;10876;49.038;10.608;2023-07-13T05:09:49;3.63;;;1.55;;
21430;SDS011;10876;49.038;10.608;2023-07-13T05:12:15;2.40;;;1.60;;
21430;SDS011;10876;49.038;10.608;2023-07-13T05:14:42;3.72;;;1.80;;
21430;SDS011;10876;49.038;10.608;2023-07-13T05:17:08;3.35;;;1.90;;
21430;SDS011;10876;49.038;10.608;2023-07-13T05:19:37;1.73;;;1.48;;
21430;SDS011;10876;49.038;10.608;2023-07-13T05:22:04;2.90;;;1.80;;
21430;SDS011;10876;49.038;10.608;2023-07-13T05:24:30;3.05;;;1.60;;
21430;SDS011;10876;49.038;10.608;2023-07-13T05:26:57;2.47;;;1.80;;
21430;SDS011;10876;49.038;10.608;2023-07-13T05:29:24;4.57;;;1.88;;
21430;SDS011;10876;49.038;10.608;2023-07-13T05:31:50;4.13;;;1.65;;
21430;SDS011;10876;49.038;10.608;2023-07-13T05:34:17;4.85;;;1.90;;
21430;SDS011;10876;49.038;10.608;2023-07-13T05:36:45;3.40;;;1.50;;
21430;SDS011;10876;49.038;10.608;2023-07-13T05:39:12;3.13;;;1.63;;
21430;SDS011;10876;49.038;10.608;2023-07-13T05:41:39;4.13;;;1.70;;
21430;SDS011;10876;49.038;10.608;2023-07-13T05:44:05;2.28;;;1.52;;
21430;SDS011;10876;49.038;10.608;2023-07-13T05:46:32;4.18;;;1.58;;
21430;SDS011;10876;49.038;10.608;2023-07-13T05:49:00;3.65;;;1.67;;
21430;SDS011;10876;49.038;10.608;2023-07-13T05:51:26;4.25;;;1.20;;
21430;SDS011;10876;49.038;10.608;2023-07-13T05:53:54;3.45;;;1.70;;
21430;SDS011;10876;49.038;10.608;2023-07-13T05:56:21;6.50;;;1.70;;
21430;SDS011;10876;49.038;10.608;2023-07-13T05:58:48;2.85;;;1.55;;
21430;SDS011;10876;49.038;10.608;2023-07-13T06:01:15;2.63;;;1.42;;
21430;SDS011;10876;49.038;10.608;2023-07-13T06:03:43;2.95;;;1.33;;
21430;SDS011;10876;49.038;10.608;2023-07-13T06:06:09;2.88;;;1.20;;
21430;SDS011;10876;49.038;10.608;2023-07-13T06:08:37;1.55;;;1.10;;
21430;SDS011;10876;49.038;10.608;2023-07-13T06:11:06;3.22;;;1.27;;
21430;SDS011;10876;49.038;10.608;2023-07-13T06:13:34;2.60;;;1.20;;
21430;SDS011;10876;49.038;10.608;2023-07-13T06:16:01;3.80;;;1.30;;
21430;SDS011;10876;49.038;10.608;2023-07-13T06:18:29;3.80;;;1.45;;
21430;SDS011;10876;49.038;10.608;2023-07-13T06:20:56;1.65;;;1.30;;
21430;SDS011;10876;49.038;10.608;2023-07-13T06:23:23;2.80;;;1.25;;
21430;SDS011;10876;49.038;10.608;2023-07-13T06:25:50;3.47;;;1.33;;
21430;SDS011;10876;49.038;10.608;2023-07-13T06:28:18;2.83;;;1.23;;
21430;SDS011;10876;49.038;10.608;2023-07-13T06:30:45;2.55;;;1.25;;
21430;SDS011;10876;49.038;10.608;2023-07-13T06:33:12;2.28;;;1.30;;
21430;SDS011;10876;49.038;10.608;2023-07-13T06:35:39;2.08;;;1.30;;
21430;SDS011;10876;49.038;10.608;2023-07-13T06:38:05;4.68;;;1.30;;
21430;SDS011;10876;49.038;10.608;2023-07-13T06:40:32;2.45;;;1.50;;
21430;SDS011;10876;49.038;10.608;2023-07-13T06:42:59;2.30;;;1.35;;
21430;SDS011;10876;49.038;10.608;2023-07-13T06:45:27;4.95;;;1.30;;
21430;SDS011;10876;49.038;10.608;2023-07-13T06:47:53;3.17;;;1.20;;
21430;SDS011;10876;49.038;10.608;2023-07-13T06:50:20;3.28;;;1.50;;
21430;SDS011;10876;49.038;10.608;2023-07-13T06:52:47;2.47;;;1.30;;
21430;SDS011;10876;49.038;10.608;2023-07-13T06:55:14;2.97;;;1.30;;
21430;SDS011;10876;49.038;10.608;2023-07-13T06:57:40;5.85;;;1.50;;
21430;SDS011;10876;49.038;10.608;2023-07-13T07:00:07;2.08;;;1.38;;
21430;SDS011;10876;49.038;10.608;2023-07-13T07:02:36;1.52;;;1.02;;
21430;SDS011;10876;49.038;10.608;2023-07-13T07:05:03;2.60;;;1.40;;
21430;SDS011;10876;49.038;10.608;2023-07-13T07:07:30;2.78;;;1.08;;
21430;SDS011;10876;49.038;10.608;2023-07-13T07:09:57;3.70;;;1.30;;
21430;SDS011;10876;49.038;10.608;2023-07-13T07:12:23;1.70;;;1.20;;
21430;SDS011;10876;49.038;10.608;2023-07-13T07:14:50;3.47;;;1.23;;
21430;SDS011;10876;49.038;10.608;2023-07-13T07:17:17;2.97;;;1.10;;
21430;SDS011;10876;49.038;10.608;2023-07-13T07:19:45;3.45;;;1.30;;
21430;SDS011;10876;49.038;10.608;2023-07-13T07:22:12;3.30;;;1.42;;
21430;SDS011;10876;49.038;10.608;2023-07-13T07:24:38;6.40;;;1.50;;
21430;SDS011;10876;49.038;10.608;2023-07-13T07:27:05;3.25;;;1.20;;
21430;SDS011;10876;49.038;10.608;2023-07-13T07:29:32;2.95;;;1.25;;
21430;SDS011;10876;49.038;10.608;2023-07-13T07:31:59;1.90;;;1.27;;
21430;SDS011;10876;49.038;10.608;2023-07-13T07:34:26;1.55;;;1.38;;
21430;SDS011;10876;49.038;10.608;2023-07-13T07:36:54;5.25;;;1.50;;
21430;SDS011;10876;49.038;10.608;2023-07-13T07:39:21;2.35;;;1.20;;
21430;SDS011;10876;49.038;10.608;2023-07-13T07:41:47;2.65;;;1.35;;
21430;SDS011;10876;49.038;10.608;2023-07-13T07:44:14;3.17;;;1.52;;
21430;SDS011;10876;49.038;10.608;2023-07-13T07:46:41;2.92;;;1.17;;
21430;SDS011;10876;49.038;10.608;2023-07-13T07:49:07;3.40;;;1.10;;
21430;SDS011;10876;49.038;10.608;2023-07-13T07:51:34;3.10;;;1.30;;
21430;SDS011;10876;49.038;10.608;2023-07-13T07:54:02;2.65;;;1.30;;
21430;SDS011;10876;49.038;10.608;2023-07-13T07:56:29;3.33;;;1.27;;
21430;SDS011;10876;49.038;10.608;2023-07-13T07:58:56;3.50;;;1.10;;
21430;SDS011;10876;49.038;10.608;2023-07-13T08:01:22;3.50;;;1.30;;
21430;SDS011;10876;49.038;10.608;2023-07-13T08:03:49;3.47;;;1.20;;
21430;SDS011;10876;49.038;10.608;2023-07-13T08:06:16;1.77;;;0.93;;
21430;SDS011;10876;49.038;10.608;2023-07-13T08:08:44;1.90;;;1.20;;
21430;SDS011;10876;49.038;10.608;2023-07-13T08:11:13;2.33;;;1.17;;
21430;SDS011;10876;49.038;10.608;2023-07-13T08:13:39;3.08;;;1.08;;
21430;SDS011;10876;49.038;10.608;2023-07-13T08:16:06;2.75;;;1.20;;
21430;SDS011;10876;49.038;10.608;2023-07-13T08:18:33;2.72;;;1.10;;
21430;SDS011;10876;49.038;10.608;2023-07-13T08:21:02;1.98;;;1.08;;
21430;SDS011;10876;49.038;10.608;2023-07-13T08:23:29;1.83;;;1.00;;
21430;SDS011;10876;49.038;10.608;2023-07-13T08:25:57;4.03;;;1.00;;
21430;SDS011;10876;49.038;10.608;2023-07-13T08:28:28;1.00;;;0.90;;
21430;SDS011;10876;49.038;10.608;2023-07-13T08:30:55;2.65;;;1.00;;
21430;SDS011;10876;49.038;10.608;2023-07-13T08:33:21;1.58;;;1.00;;
21430;SDS011;10876;49.038;10.608;2023-07-13T08:35:50;3.05;;;1.13;;
21430;SDS011;10876;49.038;10.608;2023-07-13T08:38:17;4.85;;;1.13;;
21430;SDS011;10876;49.038;10.608;2023-07-13T08:40:45;3.50;;;1.20;;
21430;SDS011;10876;49.038;10.608;2023-07-13T08:43:19;2.90;;;1.10;;
21430;SDS011;10876;49.038;10.608;2023-07-13T08:45:50;1.48;;;0.95;;
21430;SDS011;10876;49.038;10.608;2023-07-13T08:48:20;3.85;;;1.10;;
21430;SDS011;10876;49.038;10.608;2023-07-13T08:50:54;2.13;;;1.30;;
21430;SDS011;10876;49.038;10.608;2023-07-13T08:53:24;4.68;;;1.27;;
21430;SDS011;10876;49.038;10.608;2023-07-13T08:55:59;2.63;;;1.05;;
21430;SDS011;10876;49.038;10.608;2023-07-13T08:58:26;3.72;;;1.10;;
21430;SDS011;10876;49.038;10.608;2023-07-13T09:00:58;1.85;;;1.00;;
21430;SDS011;10876;49.038;10.608;2023-07-13T09:03:36;1.85;;;1.08;;
21430;SDS011;10876;49.038;10.608;2023-07-13T09:06:06;2.17;;;1.17;;
21430;SDS011;10876;49.038;10.608;2023-07-13T09:08:43;2.45;;;1.00;;
21430;SDS011;10876;49.038;10.608;2023-07-13T09:11:22;2.08;;;1.10;;
21430;SDS011;10876;49.038;10.608;2023-07-13T09:13:57;2.58;;;1.20;;
21430;SDS011;10876;49.038;10.608;2023-07-13T09:16:30;2.25;;;1.00;;
21430;SDS011;10876;49.038;10.608;2023-07-13T09:18:59;5.90;;;1.40;;
21430;SDS011;10876;49.038;10.608;2023-07-13T09:21:31;3.75;;;1.20;;
21430;SDS011;10876;49.038;10.608;2023-07-13T09:24:01;1.77;;;1.05;;
21430;SDS011;10876;49.038;10.608;2023-07-13T09:26:48;2.58;;;1.02;;
21430;SDS011;10876;49.038;10.608;2023-07-13T09:29:17;5.70;;;1.20;;
21430;SDS011;10876;49.038;10.608;2023-07-13T09:31:52;3.47;;;1.08;;
21430;SDS011;10876;49.038;10.608;2023-07-13T09:34:22;3.13;;;1.15;;
21430;SDS011;10876;49.038;10.608;2023-07-13T09:36:49;3.33;;;1.10;;
21430;SDS011;10876;49.038;10.608;2023-07-13T09:39:24;2.28;;;0.98;;
21430;SDS011;10876;49.038;10.608;2023-07-13T09:41:54;4.25;;;1.10;;
21430;SDS011;10876;49.038;10.608;2023-07-13T09:44:28;2.03;;;1.02;;
21430;SDS011;10876;49.038;10.608;2023-07-13T09:46:58;2.28;;;1.00;;
21430;SDS011;10876;49.038;10.608;2023-07-13T09:49:27;1.27;;;0.77;;
21430;SDS011;10876;49.038;10.608;2023-07-13T09:51:58;4.55;;;1.25;;
21430;SDS011;10876;49.038;10.608;2023-07-13T09:54:27;3.08;;;0.90;;
21430;SDS011;10876;49.038;10.608;2023-07-13T09:56:54;0.80;;;0.80;;
21430;SDS011;10876;49.038;10.608;2023-07-13T09:59:23;3.72;;;1.05;;
21430;SDS011;10876;49.038;10.608;2023-07-13T10:01:59;3.50;;;1.10;;
21430;SDS011;10876;49.038;10.608;2023-07-13T10:04:27;2.83;;;1.20;;
21430;SDS011;10876;49.038;10.608;2023-07-13T10:07:04;4.80;;;1.10;;
21430;SDS011;10876;49.038;10.608;2023-07-13T10:09:32;2.88;;;0.90;;
21430;SDS011;10876;49.038;10.608;2023-07-13T10:11:59;2.30;;;0.80;;
21430;SDS011;10876;49.038;10.608;2023-07-13T10:14:30;4.40;;;1.10;;
21430;SDS011;10876;49.038;10.608;2023-07-13T10:16:58;2.85;;;1.08;;
21430;SDS011;10876;49.038;10.608;2023-07-13T10:19:29;3.03;;;0.70;;
21430;SDS011;10876;49.038;10.608;2023-07-13T10:21:59;2.60;;;1.10;;
21430;SDS011;10876;49.038;10.608;2023-07-13T10:24:29;3.20;;;1.00;;
21430;SDS011;10876;49.038;10.608;2023-07-13T10:27:00;4.30;;;1.27;;
21430;SDS011;10876;49.038;10.608;2023-07-13T10:29:34;3.22;;;0.90;;
21430;SDS011;10876;49.038;10.608;2023-07-13T10:32:07;1.08;;;0.82;;
21430;SDS011;10876;49.038;10.608;2023-07-13T10:34:37;1.95;;;0.95;;
21430;SDS011;10876;49.038;10.608;2023-07-13T10:37:05;2.30;;;0.93;;
21430;SDS011;10876;49.038;10.608;2023-07-13T10:39:34;4.60;;;0.77;;
21430;SDS011;10876;49.038;10.608;2023-07-13T10:42:04;3.38;;;0.90;;
21430;SDS011;10876;49.038;10.608;2023-07-13T10:44:37;2.72;;;0.90;;
21430;SDS011;10876;49.038;10.608;2023-07-13T10:47:07;2.15;;;1.00;;
21430;SDS011;10876;49.038;10.608;2023-07-13T10:49:38;2.65;;;1.25;;
21430;SDS011;10876;49.038;10.608;2023-07-13T10:52:20;2.17;;;1.00;;
21430;SDS011;10876;49.038;10.608;2023-07-13T10:55:35;2.83;;;1.20;;
21430;SDS011;10876;49.038;10.608;2023-07-13T10:58:11;2.58;;;0.80;;
21430;SDS011;10876;49.038;10.608;2023-07-13T11:00:44;7.05;;;1.13;;
21430;SDS011;10876;49.038;10.608;2023-07-13T11:03:16;1.98;;;1.00;;
21430;SDS011;10876;49.038;10.608;2023-07-13T11:05:47;3.10;;;1.20;;
21430;SDS011;10876;49.038;10.608;2023-07-13T11:08:18;2.38;;;0.85;;
21430;SDS011;10876;49.038;10.608;2023-07-13T11:10:52;1.83;;;0.95;;
21430;SDS011;10876;49.038;10.608;2023-07-13T11:13:36;3.85;;;1.00;;
21430;SDS011;10876;49.038;10.608;2023-07-13T11:16:26;2.88;;;0.90;;
21430;SDS011;10876;49.038;10.608;2023-07-13T11:22:03;2.00;;;1.08;;
21430;SDS011;10876;49.038;10.608;2023-07-13T11:24:48;3.40;;;0.90;;
21430;SDS011;10876;49.038;10.608;2023-07-13T11:27:23;1.58;;;1.10;;
21430;SDS011;10876;49.038;10.608;2023-07-13T11:33:02;1.77;;;0.95;;
21430;SDS011;10876;49.038;10.608;2023-07-13T11:35:40;4.53;;;1.08;;
21430;SDS011;10876;49.038;10.608;2023-07-13T11:38:12;1.45;;;0.82;;
21430;SDS011;10876;49.038;10.608;2023-07-13T11:40:43;2.78;;;0.90;;
21430;SDS011;10876;49.038;10.608;2023-07-13T11:43:12;1.98;;;1.00;;
21430;SDS011;10876;49.038;10.608;2023-07-13T11:45:40;5.65;;;1.20;;
21430;SDS011;10876;49.038;10.608;2023-07-13T11:48:17;4.95;;;1.23;;
21430;SDS011;10876;49.038;10.608;2023-07-13T11:50:52;5.22;;;1.25;;
21430;SDS011;10876;49.038;10.608;2023-07-13T11:53:22;2.88;;;1.00;;
21430;SDS011;10876;49.038;10.608;2023-07-13T11:55:52;1.58;;;0.68;;
21430;SDS011;10876;49.038;10.608;2023-07-13T11:58:19;2.80;;;0.95;;
21430;SDS011;10876;49.038;10.608;2023-07-13T12:00:49;1.20;;;0.88;;
21430;SDS011;10876;49.038;10.608;2023-07-13T12:03:20;2.33;;;1.00;;
21430;SDS011;10876;49.038;10.608;2023-07-13T12:06:01;2.65;;;1.08;;
21430;SDS011;10876;49.038;10.608;2023-07-13T12:08:37;2.03;;;1.20;;
21430;SDS011;10876;49.038;10.608;2023-07-13T12:11:17;2.10;;;0.90;;
21430;SDS011;10876;49.038;10.608;2023-07-13T12:13:46;5.90;;;1.00;;
21430;SDS011;10876;49.038;10.608;2023-07-13T12:16:14;2.92;;;0.93;;
21430;SDS011;10876;49.038;10.608;2023-07-13T12:18:47;2.13;;;1.10;;
21430;SDS011;10876;49.038;10.608;2023-07-13T12:21:17;1.98;;;0.85;;
21430;SDS011;10876;49.038;10.608;2023-07-13T12:23:49;1.67;;;1.00;;
21430;SDS011;10876;49.038;10.608;2023-07-13T12:26:17;1.77;;;1.15;;
21430;SDS011;10876;49.038;10.608;2023-07-13T12:28:46;2.65;;;1.05;;
21430;SDS011;10876;49.038;10.608;2023-07-13T12:31:33;4.93;;;1.08;;
21430;SDS011;10876;49.038;10.608;2023-07-13T12:34:02;2.13;;;0.88;;
21430;SDS011;10876;49.038;10.608;2023-07-13T12:36:34;1.77;;;0.90;;
21430;SDS011;10876;49.038;10.608;2023-07-13T12:39:12;1.33;;;0.82;;
21430;SDS011;10876;49.038;10.608;2023-07-13T12:41:41;4.50;;;1.13;;
21430;SDS011;10876;49.038;10.608;2023-07-13T12:44:10;4.57;;;0.90;;
21430;SDS011;10876;49.038;10.608;2023-07-13T12:46:38;1.42;;;1.00;;
21430;SDS011;10876;49.038;10.608;2023-07-13T12:49:06;2.30;;;1.10;;
21430;SDS011;10876;49.038;10.608;2023-07-13T12:51:35;2.25;;;1.02;;
21430;SDS011;10876;49.038;10.608;2023-07-13T12:54:10;3.35;;;1.17;;
21430;SDS011;10876;49.038;10.608;2023-07-13T12:56:44;1.67;;;1.10;;
21430;SDS011;10876;49.038;10.608;2023-07-13T12:59:16;4.13;;;1.00;;
21430;SDS011;10876;49.038;10.608;2023-07-13T13:01:46;3.15;;;1.23;;
21430;SDS011;10876;49.038;10.608;2023-07-13T13:04:14;2.85;;;1.00;;
21430;SDS011;10876;49.038;10.608;2023-07-13T13:06:43;1.95;;;1.10;;
21430;SDS011;10876;49.038;10.608;2023-07-13T13:09:12;2.13;;;1.05;;
21430;SDS011;10876;49.038;10.608;2023-07-13T13:11:41;2.40;;;1.00;;
21430;SDS011;10876;49.038;10.608;2023-07-13T13:14:08;1.67;;;1.00;;
21430;SDS011;10876;49.038;10.608;2023-07-13T13:16:35;1.38;;;1.00;;
21430;SDS011;10876;49.038;10.608;2023-07-13T13:19:12;1.48;;;0.82;;
21430;SDS011;10876;49.038;10.608;2023-07-13T13:21:41;4.38;;;1.10;;
21430;SDS011;10876;49.038;10.608;2023-07-13T13:24:11;2.15;;;1.00;;
21430;SDS011;10876;49.038;10.608;2023-07-13T13:26:40;3.85;;;1.45;;
21430;SDS011;10876;49.038;10.608;2023-07-13T13:29:11;2.50;;;0.85;;
21430;SDS011;10876;49.038;10.608;2023-07-13T13:31:39;2.45;;;1.00;;
21430;SDS011;10876;49.038;10.608;2023-07-13T13:34:07;1.27;;;0.90;;
21430;SDS011;10876;49.038;10.608;2023-07-13T13:36:35;1.75;;;0.80;;
21430;SDS011;10876;49.038;10.608;2023-07-13T13:39:05;2.58;;;1.20;;
21430;SDS011;10876;49.038;10.608;2023-07-13T13:41:42;1.77;;;1.00;;
21430;SDS011;10876;49.038;10.608;2023-07-13T13:44:09;4.13;;;0.90;;
21430;SDS011;10876;49.038;10.608;2023-07-13T13:46:36;3.03;;;1.05;;
21430;SDS011;10876;49.038;10.608;2023-07-13T13:49:03;2.53;;;1.10;;
21430;SDS011;10876;49.038;10.608;2023-07-13T13:51:31;2.08;;;1.15;;
21430;SDS011;10876;49.038;10.608;2023-07-13T13:53:58;2.58;;;1.20;;
21430;SDS011;10876;49.038;10.608;2023-07-13T13:56:28;2.00;;;0.95;;
21430;SDS011;10876;49.038;10.608;2023-07-13T13:58:55;3.42;;;1.00;;
21430;SDS011;10876;49.038;10.608;2023-07-13T14:01:21;3.10;;;1.65;;
21430;SDS011;10876;49.038;10.608;2023-07-13T14:03:49;2.97;;;1.20;;
21430;SDS011;10876;49.038;10.608;2023-07-13T14:06:17;3.72;;;1.10;;
21430;SDS011;10876;49.038;10.608;2023-07-13T14:08:44;3.10;;;1.10;;
21430;SDS011;10876;49.038;10.608;2023-07-13T14:11:12;1.13;;;0.80;;
21430;SDS011;10876;49.038;10.608;2023-07-13T14:13:43;2.80;;;1.10;;
21430;SDS011;10876;49.038;10.608;2023-07-13T14:16:15;2.22;;;1.02;;
21430;SDS011;10876;49.038;10.608;2023-07-13T14:18:43;4.53;;;1.20;;
21430;SDS011;10876;49.038;10.608;2023-07-13T14:21:11;1.70;;;1.10;;
21430;SDS011;10876;49.038;10.608;2023-07-13T14:23:39;1.50;;;0.90;;
21430;SDS011;10876;49.038;10.608;2023-07-13T14:26:08;4.15;;;1.30;;
21430;SDS011;10876;49.038;10.608;2023-07-13T14:28:38;3.80;;;1.38;;
21430;SDS011;10876;49.038;10.608;2023-07-13T14:31:08;1.40;;;1.10;;
21430;SDS011;10876;49.038;10.608;2023-07-13T14:33:37;2.75;;;1.00;;
21430;SDS011;10876;49.038;10.608;2023-07-13T14:36:05;1.85;;;1.02;;
21430;SDS011;10876;49.038;10.608;2023-07-13T14:38:47;2.28;;;1.20;;
21430;SDS011;10876;49.038;10.608;2023-07-13T14:41:14;5.47;;;1.10;;
21430;SDS011;10876;49.038;10.608;2023-07-13T14:43:41;2.45;;;1.05;;
21430;SDS011;10876;49.038;10.608;2023-07-13T14:46:10;2.17;;;1.00;;
21430;SDS011;10876;49.038;10.608;2023-07-13T14:48:48;4.15;;;1.10;;
21430;SDS011;10876;49.038;10.608;2023-07-13T14:51:16;5.72;;;1.40;;
21430;SDS011;10876;49.038;10.608;2023-07-13T14:53:42;2.25;;;1.30;;